Aktualne dane pomiarowe

Uwaga, wersja testowa! Automatyczne pobieranie danych za pomocą narzędzi lub skryptów to umożliwiających jest zabronione.

Dane meteo z obszaru Polski uzyskane na podstawie depesz SYNOP pobieranych co godzinę z NWS. Najedź myszką na symbol przedstawiony w tabeli, aby uzyskać informacje co do jego znaczenia. Prosimy pamiętać, że to testowa wersja strony, która jeszcze nie jest ukończona. Stworzono również jest krótki FAQ dotyczący korzystania z tej podstrony Anomalie temperatury w chwili obecnej odniesione są do okresu referencyjnego 1951-2016. Okres ten będzie później zmieniony na 1981-2010. Kliknij ikonę aby pobrać plik CSV. Kliknij ikonę aby wygenerować mapę synoptyczną dla danego terminu.

Wybierz Datę:    

        

Elbląg-Milejewo (12160)

Dane terminowe dla wybranej stacji. Kliknij datę, aby otrzymać dane z tego terminu dla wszystkich stacji.

TemperaturaZachmurzenieWiatrCiśnienieOpadyPogoda
 Data t td wb tx tn tg rh  Nt Nl Cl Cm Ch ws wd g1 g2 wx mslp ppp ch 24h 12h t ww ww w1 w2  
2019-07-20 23:00:00 18.4 14.3 15.6--- 7720.0wx-wx2wx--21015.8 994.0 -0.2----22----
2019-07-20 22:00:00 19.0 14.3 15.9--- 7420.0wx-wx2wx--21015.7 994.0 0.1----22----
2019-07-20 21:00:00 19.7 14.1 16.0--- 7020.0wx-wx2wx---1015.9 994.2 0.5---------
2019-07-20 20:00:00 19.8 13.9 15.9--- 6920.0wx-wx2wx--21015.9 994.2 0.4---------
2019-07-20 19:00:00 19.5 14.5 16.2--- 7320.0wx-wx1wx--11015.6 993.9 -0.2---------
2019-07-20 18:00:00 20.8 14.9 16.9 24.1 18.7- 6920.0wx-wx2wx--21015.3 993.7 -0.5- 0.012------
2019-07-20 17:00:00 22.2 11.9 15.9--- 5220.0wx-wx3wx--31015.3 993.8 -0.6---------
2019-07-20 16:00:00 22.7 13.2 16.7--- 5520.0wxwxwxwx4wx--41015.6 994.1 -0.3---------
2019-07-20 15:00:00 23.7 13.0 17.1--- 5120.0wxwxwxwx3wx---1015.6 994.2 -0.3---------
2019-07-20 14:00:00 23.7 12.7 16.9--- 5020.0wxwxwxwx3wx--31015.8 994.4 0.0---------
2019-07-20 13:00:00 23.8 13.6 17.4--- 5320.0wxwxwxwx3wx--31015.8 994.4 0.2---------
2019-07-20 12:00:00 23.6 11.0 16.1--- 4520.0wxwxwxwx3wx--31015.9 994.5 0.3- 0.06------
2019-07-20 11:00:00 23.9 13.1 17.2--- 5120.0wxwxwxwx2wx--21015.8 994.4 0.6---------
2019-07-20 10:00:00 23.4 12.7 16.8--- 5120.0wx-wx2wx--21015.6 994.2 0.7---------
2019-07-20 09:00:00 22.3 12.3 16.1--- 5320.0wx-2wx--21015.7 994.2 0.9---------
2019-07-20 08:00:00 21.0 13.2 16.0--- 6120.0wx-2wx--21015.4 993.8 0.9----22----
2019-07-20 07:00:00 19.8 13.0 15.5--- 6520.0wx-wx2wx--21015.2 993.5 0.9----22----
2019-07-20 06:00:00 18.8 13.0 15.0 19.8 14.1 11 6920.0wx-wx2wx--21015.0 993.3 1.0- 0.012-22--- 11.8
2019-07-20 05:00:00 17.6 13.5 14.9--- 7720.0wxwxwxwx1wx---1014.7 992.9 0.7---------
2019-07-20 04:00:00 16.2 12.2 13.6--- 7720.0wxwxwx1wx--11014.5 992.6 0.6----22----
2019-07-20 03:00:00 17.0 11.5 13.5--- 7020.0wxwxwx2wx--21014.1 992.3 0.2----22----
2019-07-20 02:00:00 15.3 11.7 12.9--- 7920.0wx-wxwx2wx--21014.2 992.2 0.1----22----
2019-07-20 01:00:00 16.5 11.6 13.3--- 7320.0wx-wx1wx--11013.9 992.0 -0.1----22----
2019-07-20 00:00:00 17.1 11.8 13.7--- 7120.0wx-wxwx1wx--11013.9 992.1 0.1- 0.06-22----
2019-07-19 23:00:00 17.2 12.1 13.9--- 7220.0wx-wx1wx---1013.9 992.1 0.2---------
2019-07-19 22:00:00 16.8 12.5 14.0--- 7620.0wx-wx1wx--11014.0 992.1 0.5----22----
2019-07-19 21:00:00 17.2 13.1 14.5--- 7720.0wx-wxwx2wx--21013.8 992.0 0.6----22----
2019-07-19 20:00:00 17.9 14.0 15.3--- 7820.0wx-wxwx2wx--21013.7 991.9 0.5---------
2019-07-19 19:00:00 18.8 14.1 15.7--- 7420.0wx-wxwx2wx--21013.3 991.6 0.3---------
2019-07-19 18:00:00 19.7 13.8 15.8 24.5 16.2- 6920.0wxwxwxwxwx2wx--21013.0 991.4 0.0- 0.012------
2019-07-19 17:00:00 21.3 13.7 16.4--- 6220.0wxwxwxwx3wx--31012.9 991.4 0.0---------
2019-07-19 16:00:00 22.0 13.9 16.8--- 6020.0wxwxwxwx3wx--31012.7 991.3 -0.1---------
2019-07-19 15:00:00 22.6 13.9 17.1--- 5820.0wxwxwxwx3wx--31012.8 991.4 -0.2---------
2019-07-19 14:00:00 23.0 14.3 17.4--- 5820.0wxwxwxwx3wx--31012.8 991.4 -0.5---------
2019-07-19 13:00:00 23.9 10.9 16.1--- 4420.0wxwxwxwx1wx--11012.7 991.4 -0.7---------
2019-07-19 12:00:00 23.8 10.5 15.9--- 4320.0wxwxwxwx2wx--21012.9 991.6 -0.7- 0.06------
2019-07-19 11:00:00 23.0 11.1 15.8--- 4720.0wxwxwxwx2wx--21013.3 991.9 -0.5---------
2019-07-19 10:00:00 22.0 12.0 15.9--- 5320.0wxwxwxwx2wx--21013.6 992.1 -0.4---------
2019-07-19 09:00:00 21.0 11.6 15.2--- 5520.0wxwxwxwx3wx--31013.8 992.3 -0.2----22----
2019-07-19 08:00:00 19.7 12.7 15.3--- 6420.0wxwxwxwx2wx--21014.0 992.4 -0.1----22----
2019-07-19 07:00:00 18.9 14.4 15.9--- 7515.0wxwxwxwx2wx--21014.2 992.5 0.0----22----
2019-07-19 06:00:00 16.2 12.7 13.9 16.3 13.0 10 8010.0wxwxwx2wx--21014.4 992.5 0.0- 0.012-22--- 11.8
2019-07-19 05:00:00 14.5 12.7 13.2--- 8915.0wxwxwx1wx--11014.5 992.5 -0.1----22----
2019-07-19 04:00:00 14.0 12.4 12.9--- 9015.0wxwxwx1wx--11014.6 992.5 0.0----22----
2019-07-19 03:00:00 13.8 12.2 12.7--- 9015.0wx-wx2wx--21014.6 992.5 0.0----22----
2019-07-19 02:00:00 13.6 12.3 12.7--- 9215.0wx-wx2wx--21014.7 992.6 0.0----22----
2019-07-19 01:00:00 13.3 12.2 12.5--- 9315.0wx-wx2wx--21014.6 992.5 -0.1----22----
2019-07-19 00:00:00 13.7 12.1 12.6--- 9015.0wx-wx2wx--21014.6 992.5 -0.1- 0.06-22----
7.4 ms

 

Print Friendly, PDF & Email